sensor_id;sensor_type;location;lat;lon;timestamp;pressure;altitude;pressure_sealevel;temperature;humidity
65173;BME280;51758;52.218;5.172;2023-01-19T00:00:58;98017.72;;;1.39;100.00
65173;BME280;51758;52.218;5.172;2023-01-19T00:03:26;98007.38;;;1.32;100.00
65173;BME280;51758;52.218;5.172;2023-01-19T00:05:54;97991.16;;;1.32;100.00
65173;BME280;51758;52.218;5.172;2023-01-19T00:08:22;97988.06;;;1.43;100.00
65173;BME280;51758;52.218;5.172;2023-01-19T00:10:49;97969.72;;;1.53;100.00
65173;BME280;51758;52.218;5.172;2023-01-19T00:13:18;97960.88;;;1.62;100.00
65173;BME280;51758;52.218;5.172;2023-01-19T00:15:46;97944.91;;;1.73;100.00
65173;BME280;51758;52.218;5.172;2023-01-19T00:18:14;97929.28;;;1.81;100.00
65173;BME280;51758;52.218;5.172;2023-01-19T00:20:44;97919.44;;;1.91;100.00
65173;BME280;51758;52.218;5.172;2023-01-19T00:23:11;97906.78;;;1.90;100.00
65173;BME280;51758;52.218;5.172;2023-01-19T00:25:39;97892.09;;;1.90;100.00
65173;BME280;51758;52.218;5.172;2023-01-19T00:28:09;97875.69;;;1.85;100.00
65173;BME280;51758;52.218;5.172;2023-01-19T00:30:38;97893.91;;;2.03;100.00
65173;BME280;51758;52.218;5.172;2023-01-19T00:33:06;97885.81;;;2.06;100.00
65173;BME280;51758;52.218;5.172;2023-01-19T00:35:34;97871.38;;;2.05;100.00
65173;BME280;51758;52.218;5.172;2023-01-19T00:38:02;97866.06;;;2.13;100.00
65173;BME280;51758;52.218;5.172;2023-01-19T00:40:30;97854.53;;;2.15;100.00
65173;BME280;51758;52.218;5.172;2023-01-19T00:42:57;97861.09;;;2.18;100.00
65173;BME280;51758;52.218;5.172;2023-01-19T00:45:26;97856.94;;;2.17;100.00
65173;BME280;51758;52.218;5.172;2023-01-19T00:47:55;97852.97;;;2.21;100.00
65173;BME280;51758;52.218;5.172;2023-01-19T00:50:24;97861.69;;;2.13;100.00
65173;BME280;51758;52.218;5.172;2023-01-19T00:52:52;97861.69;;;2.20;100.00
65173;BME280;51758;52.218;5.172;2023-01-19T00:55:21;97850.59;;;2.20;100.00
65173;BME280;51758;52.218;5.172;2023-01-19T00:57:50;97855.16;;;2.11;100.00
65173;BME280;51758;52.218;5.172;2023-01-19T01:00:19;97846.84;;;2.35;100.00
65173;BME280;51758;52.218;5.172;2023-01-19T01:02:49;97851.00;;;2.23;100.00
65173;BME280;51758;52.218;5.172;2023-01-19T01:05:21;97834.78;;;2.36;100.00
65173;BME280;51758;52.218;5.172;2023-01-19T01:07:49;97831.00;;;2.25;100.00
65173;BME280;51758;52.218;5.172;2023-01-19T01:10:18;97844.47;;;2.27;100.00
65173;BME280;51758;52.218;5.172;2023-01-19T01:12:47;97839.53;;;2.26;100.00
65173;BME280;51758;52.218;5.172;2023-01-19T01:15:25;97846.03;;;2.28;100.00
65173;BME280;51758;52.218;5.172;2023-01-19T01:17:53;97847.06;;;2.40;100.00
65173;BME280;51758;52.218;5.172;2023-01-19T01:20:23;97842.50;;;2.36;100.00
65173;BME280;51758;52.218;5.172;2023-01-19T01:22:54;97841.13;;;2.40;100.00
65173;BME280;51758;52.218;5.172;2023-01-19T01:25:23;97841.28;;;2.45;100.00
65173;BME280;51758;52.218;5.172;2023-01-19T01:27:52;97834.56;;;2.57;100.00
65173;BME280;51758;52.218;5.172;2023-01-19T01:30:20;97828.03;;;2.41;100.00
65173;BME280;51758;52.218;5.172;2023-01-19T01:32:48;97823.66;;;2.55;100.00
65173;BME280;51758;52.218;5.172;2023-01-19T01:35:16;97825.41;;;2.68;100.00
65173;BME280;51758;52.218;5.172;2023-01-19T01:37:45;97827.81;;;2.63;100.00
65173;BME280;51758;52.218;5.172;2023-01-19T01:40:15;97827.63;;;2.64;100.00
65173;BME280;51758;52.218;5.172;2023-01-19T01:42:43;97829.97;;;2.72;100.00
65173;BME280;51758;52.218;5.172;2023-01-19T01:45:28;97833.94;;;2.75;100.00
65173;BME280;51758;52.218;5.172;2023-01-19T01:47:58;97827.44;;;2.66;100.00
65173;BME280;51758;52.218;5.172;2023-01-19T01:50:28;97836.13;;;2.78;100.00
65173;BME280;51758;52.218;5.172;2023-01-19T01:53:00;97831.94;;;2.90;100.00
65173;BME280;51758;52.218;5.172;2023-01-19T01:55:34;97836.31;;;2.90;100.00
65173;BME280;51758;52.218;5.172;2023-01-19T01:58:04;97834.09;;;2.93;100.00
65173;BME280;51758;52.218;5.172;2023-01-19T02:00:34;97834.25;;;3.05;100.00
65173;BME280;51758;52.218;5.172;2023-01-19T02:03:16;97836.28;;;2.96;100.00
65173;BME280;51758;52.218;5.172;2023-01-19T02:05:44;97835.09;;;2.99;100.00
65173;BME280;51758;52.218;5.172;2023-01-19T02:08:17;97834.69;;;3.02;100.00
65173;BME280;51758;52.218;5.172;2023-01-19T02:11:04;97830.31;;;3.02;100.00
65173;BME280;51758;52.218;5.172;2023-01-19T02:13:50;97839.28;;;2.80;100.00
65173;BME280;51758;52.218;5.172;2023-01-19T02:16:18;97838.69;;;2.84;100.00
65173;BME280;51758;52.218;5.172;2023-01-19T02:18:46;97846.00;;;2.81;100.00
65173;BME280;51758;52.218;5.172;2023-01-19T02:21:19;97809.78;;;2.56;100.00
65173;BME280;51758;52.218;5.172;2023-01-19T02:23:51;97876.72;;;2.82;100.00
65173;BME280;51758;52.218;5.172;2023-01-19T02:26:22;97869.63;;;2.78;100.00
65173;BME280;51758;52.218;5.172;2023-01-19T02:28:52;97877.91;;;2.80;100.00
65173;BME280;51758;52.218;5.172;2023-01-19T02:31:23;97890.19;;;2.98;100.00
65173;BME280;51758;52.218;5.172;2023-01-19T02:33:51;97877.13;;;2.66;100.00
65173;BME280;51758;52.218;5.172;2023-01-19T02:36:22;97897.97;;;2.78;100.00
65173;BME280;51758;52.218;5.172;2023-01-19T02:38:54;97907.84;;;2.87;100.00
65173;BME280;51758;52.218;5.172;2023-01-19T02:41:25;97899.53;;;2.99;100.00
65173;BME280;51758;52.218;5.172;2023-01-19T02:43:55;97911.22;;;2.95;100.00
65173;BME280;51758;52.218;5.172;2023-01-19T02:46:24;97902.91;;;2.86;100.00
65173;BME280;51758;52.218;5.172;2023-01-19T02:48:57;97914.19;;;2.92;100.00
65173;BME280;51758;52.218;5.172;2023-01-19T02:51:25;97916.38;;;2.95;100.00
65173;BME280;51758;52.218;5.172;2023-01-19T02:54:06;97914.78;;;2.87;100.00
65173;BME280;51758;52.218;5.172;2023-01-19T02:56:47;97924.91;;;2.75;100.00
65173;BME280;51758;52.218;5.172;2023-01-19T02:59:24;97910.63;;;2.73;100.00
65173;BME280;51758;52.218;5.172;2023-01-19T03:02:08;97922.72;;;2.79;100.00
65173;BME280;51758;52.218;5.172;2023-01-19T03:04:51;97929.06;;;2.83;100.00
65173;BME280;51758;52.218;5.172;2023-01-19T03:07:26;97922.13;;;2.90;100.00
65173;BME280;51758;52.218;5.172;2023-01-19T03:10:04;97911.59;;;2.92;100.00
65173;BME280;51758;52.218;5.172;2023-01-19T03:12:39;97927.84;;;3.05;100.00
65173;BME280;51758;52.218;5.172;2023-01-19T03:15:13;97953.84;;;2.97;100.00
65173;BME280;51758;52.218;5.172;2023-01-19T03:17:44;97983.75;;;2.72;100.00
65173;BME280;51758;52.218;5.172;2023-01-19T03:20:18;97983.38;;;2.75;100.00
65173;BME280;51758;52.218;5.172;2023-01-19T03:22:53;97976.84;;;2.85;100.00
65173;BME280;51758;52.218;5.172;2023-01-19T03:25:24;97991.91;;;2.75;100.00
65173;BME280;51758;52.218;5.172;2023-01-19T03:27:53;98002.41;;;2.74;100.00
65173;BME280;51758;52.218;5.172;2023-01-19T03:30:26;98010.31;;;2.66;100.00
65173;BME280;51758;52.218;5.172;2023-01-19T03:32:58;98026.13;;;2.56;100.00
65173;BME280;51758;52.218;5.172;2023-01-19T03:35:30;98034.03;;;2.55;100.00
65173;BME280;51758;52.218;5.172;2023-01-19T03:38:02;98023.97;;;2.53;100.00
65173;BME280;51758;52.218;5.172;2023-01-19T03:40:34;98041.97;;;2.46;100.00
65173;BME280;51758;52.218;5.172;2023-01-19T03:43:03;98037.59;;;2.53;100.00
65173;BME280;51758;52.218;5.172;2023-01-19T03:45:32;98056.84;;;2.51;100.00
65173;BME280;51758;52.218;5.172;2023-01-19T03:48:04;98068.09;;;2.37;100.00
65173;BME280;51758;52.218;5.172;2023-01-19T03:50:32;98068.03;;;2.30;100.00
65173;BME280;51758;52.218;5.172;2023-01-19T03:53:04;98064.47;;;2.25;100.00
65173;BME280;51758;52.218;5.172;2023-01-19T03:55:36;98061.91;;;2.25;100.00
65173;BME280;51758;52.218;5.172;2023-01-19T03:58:04;98068.22;;;2.22;100.00
65173;BME280;51758;52.218;5.172;2023-01-19T04:00:33;98070.00;;;2.28;100.00
65173;BME280;51758;52.218;5.172;2023-01-19T04:03:01;98067.84;;;2.25;100.00
65173;BME280;51758;52.218;5.172;2023-01-19T04:05:30;98073.13;;;2.10;100.00
65173;BME280;51758;52.218;5.172;2023-01-19T04:07:58;98077.84;;;2.07;100.00
65173;BME280;51758;52.218;5.172;2023-01-19T04:10:26;98074.53;;;2.13;100.00
65173;BME280;51758;52.218;5.172;2023-01-19T04:12:59;98072.50;;;2.08;100.00
65173;BME280;51758;52.218;5.172;2023-01-19T04:15:28;98089.50;;;2.03;100.00
65173;BME280;51758;52.218;5.172;2023-01-19T04:17:56;98090.50;;;2.02;100.00
65173;BME280;51758;52.218;5.172;2023-01-19T04:20:24;98081.31;;;1.93;100.00
65173;BME280;51758;52.218;5.172;2023-01-19T04:22:53;98089.44;;;1.90;100.00
65173;BME280;51758;52.218;5.172;2023-01-19T04:25:22;98087.69;;;1.97;100.00
65173;BME280;51758;52.218;5.172;2023-01-19T04:27:51;98090.63;;;1.94;100.00
65173;BME280;51758;52.218;5.172;2023-01-19T04:30:20;98093.59;;;1.91;100.00
65173;BME280;51758;52.218;5.172;2023-01-19T04:32:48;98085.28;;;1.89;100.00
65173;BME280;51758;52.218;5.172;2023-01-19T04:35:17;98086.44;;;1.86;100.00
65173;BME280;51758;52.218;5.172;2023-01-19T04:37:44;98098.69;;;1.84;100.00
65173;BME280;51758;52.218;5.172;2023-01-19T04:40:12;98098.00;;;1.97;100.00
65173;BME280;51758;52.218;5.172;2023-01-19T04:42:42;98094.81;;;1.95;100.00
65173;BME280;51758;52.218;5.172;2023-01-19T04:45:12;98094.28;;;2.06;100.00
65173;BME280;51758;52.218;5.172;2023-01-19T04:47:41;98101.59;;;2.02;100.00
65173;BME280;51758;52.218;5.172;2023-01-19T04:50:10;98102.00;;;2.06;100.00
65173;BME280;51758;52.218;5.172;2023-01-19T04:52:38;98092.47;;;2.00;100.00
65173;BME280;51758;52.218;5.172;2023-01-19T04:55:06;98103.75;;;2.05;100.00
65173;BME280;51758;52.218;5.172;2023-01-19T04:57:34;98107.56;;;2.09;100.00
65173;BME280;51758;52.218;5.172;2023-01-19T05:00:03;98104.03;;;2.17;100.00
65173;BME280;51758;52.218;5.172;2023-01-19T05:02:31;98100.13;;;2.28;100.00
65173;BME280;51758;52.218;5.172;2023-01-19T05:05:01;98108.22;;;2.25;100.00
65173;BME280;51758;52.218;5.172;2023-01-19T05:07:29;98107.66;;;2.29;100.00
65173;BME280;51758;52.218;5.172;2023-01-19T05:09:57;98103.34;;;2.36;100.00
65173;BME280;51758;52.218;5.172;2023-01-19T05:12:25;98081.22;;;2.07;100.00
65173;BME280;51758;52.218;5.172;2023-01-19T05:14:53;98111.84;;;2.37;100.00
65173;BME280;51758;52.218;5.172;2023-01-19T05:17:20;98096.97;;;2.32;100.00
65173;BME280;51758;52.218;5.172;2023-01-19T05:19:48;98115.63;;;2.41;100.00
65173;BME280;51758;52.218;5.172;2023-01-19T05:22:17;98117.81;;;2.44;100.00
65173;BME280;51758;52.218;5.172;2023-01-19T05:24:45;98107.31;;;2.39;100.00
65173;BME280;51758;52.218;5.172;2023-01-19T05:27:12;98110.88;;;2.44;100.00
65173;BME280;51758;52.218;5.172;2023-01-19T05:29:40;98115.28;;;2.57;100.00
65173;BME280;51758;52.218;5.172;2023-01-19T05:32:08;98107.56;;;2.50;100.00
65173;BME280;51758;52.218;5.172;2023-01-19T05:34:36;98118.06;;;2.56;100.00
65173;BME280;51758;52.218;5.172;2023-01-19T05:37:03;98109.56;;;2.68;100.00
65173;BME280;51758;52.218;5.172;2023-01-19T05:39:32;98114.53;;;2.63;100.00
65173;BME280;51758;52.218;5.172;2023-01-19T05:42:00;98117.72;;;2.65;100.00
65173;BME280;51758;52.218;5.172;2023-01-19T05:44:28;98128.41;;;2.62;100.00
65173;BME280;51758;52.218;5.172;2023-01-19T05:46:55;98143.00;;;2.55;100.00
65173;BME280;51758;52.218;5.172;2023-01-19T05:49:23;98138.09;;;2.60;100.00
65173;BME280;51758;52.218;5.172;2023-01-19T05:51:51;98150.38;;;2.58;100.00
65173;BME280;51758;52.218;5.172;2023-01-19T05:54:19;98155.94;;;2.62;100.00
65173;BME280;51758;52.218;5.172;2023-01-19T05:56:48;98157.72;;;2.61;100.00
65173;BME280;51758;52.218;5.172;2023-01-19T05:59:16;98155.31;;;2.53;100.00
65173;BME280;51758;52.218;5.172;2023-01-19T06:01:49;98170.59;;;2.61;100.00
65173;BME280;51758;52.218;5.172;2023-01-19T06:04:17;98170.84;;;2.73;100.00
65173;BME280;51758;52.218;5.172;2023-01-19T06:06:46;98183.13;;;2.71;100.00
65173;BME280;51758;52.218;5.172;2023-01-19T06:09:13;98193.41;;;2.71;100.00
65173;BME280;51758;52.218;5.172;2023-01-19T06:11:42;98200.34;;;2.64;100.00
65173;BME280;51758;52.218;5.172;2023-01-19T06:14:11;98208.25;;;2.62;100.00
65173;BME280;51758;52.218;5.172;2023-01-19T06:16:39;98223.13;;;2.67;100.00
65173;BME280;51758;52.218;5.172;2023-01-19T06:19:08;98226.91;;;2.64;100.00
65173;BME280;51758;52.218;5.172;2023-01-19T06:21:35;98230.03;;;2.66;100.00
65173;BME280;51758;52.218;5.172;2023-01-19T06:24:04;98240.59;;;2.71;100.00
65173;BME280;51758;52.218;5.172;2023-01-19T06:26:32;98249.88;;;2.66;100.00
65173;BME280;51758;52.218;5.172;2023-01-19T06:28:59;98257.03;;;2.70;100.00
65173;BME280;51758;52.218;5.172;2023-01-19T06:31:28;98268.50;;;2.68;100.00
65173;BME280;51758;52.218;5.172;2023-01-19T06:33:56;98270.72;;;2.71;100.00
65173;BME280;51758;52.218;5.172;2023-01-19T06:36:24;98289.91;;;2.68;100.00
65173;BME280;51758;52.218;5.172;2023-01-19T06:38:52;98284.56;;;2.70;100.00
65173;BME280;51758;52.218;5.172;2023-01-19T06:41:19;98304.25;;;2.77;100.00
65173;BME280;51758;52.218;5.172;2023-01-19T06:43:47;98305.06;;;2.78;100.00
65173;BME280;51758;52.218;5.172;2023-01-19T06:46:15;98325.69;;;2.84;100.00
65173;BME280;51758;52.218;5.172;2023-01-19T06:48:44;98332.16;;;2.74;100.00
65173;BME280;51758;52.218;5.172;2023-01-19T06:51:11;98354.09;;;2.63;100.00
65173;BME280;51758;52.218;5.172;2023-01-19T06:53:39;98364.53;;;2.55;100.00
65173;BME280;51758;52.218;5.172;2023-01-19T06:56:07;98370.88;;;2.53;100.00
65173;BME280;51758;52.218;5.172;2023-01-19T06:58:36;98372.22;;;2.48;100.00
65173;BME280;51758;52.218;5.172;2023-01-19T07:01:05;98398.41;;;2.52;100.00
65173;BME280;51758;52.218;5.172;2023-01-19T07:03:34;98398.81;;;2.56;100.00
65173;BME280;51758;52.218;5.172;2023-01-19T07:06:05;98408.00;;;2.65;100.00
65173;BME280;51758;52.218;5.172;2023-01-19T07:08:33;98422.84;;;2.63;100.00
65173;BME280;51758;52.218;5.172;2023-01-19T07:11:02;98425.25;;;2.64;100.00
65173;BME280;51758;52.218;5.172;2023-01-19T07:13:53;98429.91;;;2.54;100.00
65173;BME280;51758;52.218;5.172;2023-01-19T07:16:21;98454.25;;;2.73;100.00
65173;BME280;51758;52.218;5.172;2023-01-19T07:18:49;98455.47;;;2.77;100.00
65173;BME280;51758;52.218;5.172;2023-01-19T07:21:18;98465.91;;;2.90;100.00
65173;BME280;51758;52.218;5.172;2023-01-19T07:23:47;98476.59;;;2.94;100.00
65173;BME280;51758;52.218;5.172;2023-01-19T07:26:15;98483.97;;;2.97;100.00
65173;BME280;51758;52.218;5.172;2023-01-19T07:28:45;98511.34;;;2.98;100.00
65173;BME280;51758;52.218;5.172;2023-01-19T07:31:13;98530.69;;;2.87;100.00
65173;BME280;51758;52.218;5.172;2023-01-19T07:33:42;98551.41;;;2.79;100.00
65173;BME280;51758;52.218;5.172;2023-01-19T07:36:10;98540.00;;;2.67;100.00
65173;BME280;51758;52.218;5.172;2023-01-19T07:38:39;98567.78;;;2.71;100.00
65173;BME280;51758;52.218;5.172;2023-01-19T07:41:08;98581.34;;;2.59;100.00
65173;BME280;51758;52.218;5.172;2023-01-19T07:43:36;98582.66;;;2.55;100.00
65173;BME280;51758;52.218;5.172;2023-01-19T07:46:05;98581.44;;;2.50;100.00
65173;BME280;51758;52.218;5.172;2023-01-19T07:48:33;98568.28;;;2.60;100.00
65173;BME280;51758;52.218;5.172;2023-01-19T07:51:03;98581.41;;;2.65;100.00
65173;BME280;51758;52.218;5.172;2023-01-19T07:53:39;98593.59;;;2.57;100.00
65173;BME280;51758;52.218;5.172;2023-01-19T07:56:07;98585.00;;;2.49;100.00
65173;BME280;51758;52.218;5.172;2023-01-19T07:58:35;98597.94;;;2.56;100.00
65173;BME280;51758;52.218;5.172;2023-01-19T08:01:05;98607.75;;;2.46;100.00
65173;BME280;51758;52.218;5.172;2023-01-19T08:03:33;98618.16;;;2.38;100.00
65173;BME280;51758;52.218;5.172;2023-01-19T08:06:00;98612.56;;;2.34;100.00
65173;BME280;51758;52.218;5.172;2023-01-19T08:08:31;98619.66;;;2.32;100.00
65173;BME280;51758;52.218;5.172;2023-01-19T08:11:00;98627.19;;;2.19;100.00
65173;BME280;51758;52.218;5.172;2023-01-19T08:13:28;98630.69;;;2.11;100.00
65173;BME280;51758;52.218;5.172;2023-01-19T08:15:56;98598.44;;;1.86;100.00
65173;BME280;51758;52.218;5.172;2023-01-19T08:18:23;98640.16;;;2.11;100.00
65173;BME280;51758;52.218;5.172;2023-01-19T08:20:51;98633.06;;;1.98;100.00
65173;BME280;51758;52.218;5.172;2023-01-19T08:23:19;98635.97;;;1.95;100.00
65173;BME280;51758;52.218;5.172;2023-01-19T08:25:46;98641.31;;;1.94;100.00
65173;BME280;51758;52.218;5.172;2023-01-19T08:28:16;98639.00;;;1.99;100.00
65173;BME280;51758;52.218;5.172;2023-01-19T08:30:44;98625.97;;;2.00;100.00
65173;BME280;51758;52.218;5.172;2023-01-19T08:33:20;98622.50;;;2.08;100.00
65173;BME280;51758;52.218;5.172;2023-01-19T08:35:50;98630.75;;;2.03;100.00
65173;BME280;51758;52.218;5.172;2023-01-19T08:38:18;98634.41;;;2.09;100.00
65173;BME280;51758;52.218;5.172;2023-01-19T08:40:47;98628.97;;;2.04;100.00
65173;BME280;51758;52.218;5.172;2023-01-19T08:43:16;98642.13;;;2.09;100.00
65173;BME280;51758;52.218;5.172;2023-01-19T08:45:48;98633.06;;;2.13;100.00
65173;BME280;51758;52.218;5.172;2023-01-19T08:48:17;98637.16;;;2.22;100.00
65173;BME280;51758;52.218;5.172;2023-01-19T08:50:45;98641.78;;;2.27;100.00
65173;BME280;51758;52.218;5.172;2023-01-19T08:53:14;98646.19;;;2.33;100.00
65173;BME280;51758;52.218;5.172;2023-01-19T08:55:42;98656.03;;;2.29;100.00
65173;BME280;51758;52.218;5.172;2023-01-19T08:58:10;98672.13;;;2.31;100.00
65173;BME280;51758;52.218;5.172;2023-01-19T09:00:39;98664.56;;;2.30;100.00
65173;BME280;51758;52.218;5.172;2023-01-19T09:03:08;98673.38;;;2.35;100.00
65173;BME280;51758;52.218;5.172;2023-01-19T09:05:37;98681.91;;;2.36;100.00
65173;BME280;51758;52.218;5.172;2023-01-19T09:08:07;98685.34;;;2.43;100.00
65173;BME280;51758;52.218;5.172;2023-01-19T09:10:36;98685.69;;;2.55;100.00
65173;BME280;51758;52.218;5.172;2023-01-19T09:13:06;98694.59;;;2.52;100.00
65173;BME280;51758;52.218;5.172;2023-01-19T09:15:36;98696.91;;;2.62;100.00
65173;BME280;51758;52.218;5.172;2023-01-19T09:18:07;98697.34;;;2.65;100.00
65173;BME280;51758;52.218;5.172;2023-01-19T09:20:38;98709.50;;;2.71;100.00
65173;BME280;51758;52.218;5.172;2023-01-19T09:23:08;98719.91;;;2.78;100.00
65173;BME280;51758;52.218;5.172;2023-01-19T09:25:37;98729.06;;;2.66;100.00
65173;BME280;51758;52.218;5.172;2023-01-19T09:28:05;98734.13;;;2.59;100.00
65173;BME280;51758;52.218;5.172;2023-01-19T09:30:35;98739.00;;;2.69;100.00
65173;BME280;51758;52.218;5.172;2023-01-19T09:33:07;98750.56;;;2.73;100.00
65173;BME280;51758;52.218;5.172;2023-01-19T09:35:36;98741.22;;;2.72;100.00
65173;BME280;51758;52.218;5.172;2023-01-19T09:38:05;98759.16;;;2.80;100.00
65173;BME280;51758;52.218;5.172;2023-01-19T09:40:35;98768.78;;;2.86;100.00
65173;BME280;51758;52.218;5.172;2023-01-19T09:43:11;98779.94;;;2.93;100.00
65173;BME280;51758;52.218;5.172;2023-01-19T09:45:46;98790.53;;;2.98;100.00
65173;BME280;51758;52.218;5.172;2023-01-19T09:48:27;98807.69;;;3.06;100.00
65173;BME280;51758;52.218;5.172;2023-01-19T09:51:01;98821.91;;;3.16;100.00
65173;BME280;51758;52.218;5.172;2023-01-19T09:53:43;98849.56;;;3.22;100.00
65173;BME280;51758;52.218;5.172;2023-01-19T09:56:17;98868.06;;;3.26;100.00
65173;BME280;51758;52.218;5.172;2023-01-19T09:58:46;98886.19;;;3.33;100.00
65173;BME280;51758;52.218;5.172;2023-01-19T10:01:24;98905.13;;;3.40;100.00
65173;BME280;51758;52.218;5.172;2023-01-19T10:04:07;98931.00;;;3.32;100.00
65173;BME280;51758;52.218;5.172;2023-01-19T10:06:38;98959.56;;;3.45;100.00
65173;BME280;51758;52.218;5.172;2023-01-19T10:09:10;98992.84;;;3.40;100.00
65173;BME280;51758;52.218;5.172;2023-01-19T10:11:45;99033.34;;;3.54;100.00
65173;BME280;51758;52.218;5.172;2023-01-19T10:14:24;99079.69;;;3.62;100.00
65173;BME280;51758;52.218;5.172;2023-01-19T10:17:00;99121.97;;;3.61;100.00
65173;BME280;51758;52.218;5.172;2023-01-19T10:19:37;99154.13;;;3.73;100.00
65173;BME280;51758;52.218;5.172;2023-01-19T10:22:17;99188.88;;;3.63;100.00
65173;BME280;51758;52.218;5.172;2023-01-19T10:24:47;99230.44;;;3.68;100.00
65173;BME280;51758;52.218;5.172;2023-01-19T10:27:20;99243.19;;;3.69;100.00
65173;BME280;51758;52.218;5.172;2023-01-19T10:29:50;99274.94;;;3.78;100.00
65173;BME280;51758;52.218;5.172;2023-01-19T10:32:20;99300.91;;;3.76;100.00
65173;BME280;51758;52.218;5.172;2023-01-19T10:34:50;99305.44;;;3.74;100.00
65173;BME280;51758;52.218;5.172;2023-01-19T10:37:27;99322.19;;;3.78;100.00
65173;BME280;51758;52.218;5.172;2023-01-19T10:39:59;99329.56;;;3.81;100.00
65173;BME280;51758;52.218;5.172;2023-01-19T10:42:29;99344.47;;;3.79;100.00
65173;BME280;51758;52.218;5.172;2023-01-19T10:44:57;99382.09;;;3.96;100.00
65173;BME280;51758;52.218;5.172;2023-01-19T10:47:29;99406.84;;;3.91;100.00
65173;BME280;51758;52.218;5.172;2023-01-19T10:50:05;99426.53;;;3.84;100.00
65173;BME280;51758;52.218;5.172;2023-01-19T10:52:49;99422.16;;;3.92;100.00
65173;BME280;51758;52.218;5.172;2023-01-19T10:55:28;99427.66;;;4.43;100.00
65173;BME280;51758;52.218;5.172;2023-01-19T10:57:58;99430.09;;;4.59;100.00
65173;BME280;51758;52.218;5.172;2023-01-19T11:00:32;99445.16;;;4.79;100.00
65173;BME280;51758;52.218;5.172;2023-01-19T11:03:00;99456.34;;;4.71;100.00
65173;BME280;51758;52.218;5.172;2023-01-19T11:05:30;99459.34;;;4.60;100.00
65173;BME280;51758;52.218;5.172;2023-01-19T11:07:58;99456.59;;;4.61;100.00
65173;BME280;51758;52.218;5.172;2023-01-19T11:10:27;99449.06;;;4.52;100.00
65173;BME280;51758;52.218;5.172;2023-01-19T11:12:58;99469.84;;;4.58;100.00
65173;BME280;51758;52.218;5.172;2023-01-19T11:15:30;99477.38;;;4.45;100.00
65173;BME280;51758;52.218;5.172;2023-01-19T11:18:00;99485.25;;;4.52;100.00
65173;BME280;51758;52.218;5.172;2023-01-19T11:20:34;99484.03;;;4.40;100.00
65173;BME280;51758;52.218;5.172;2023-01-19T11:23:19;99479.16;;;4.45;100.00
65173;BME280;51758;52.218;5.172;2023-01-19T11:25:50;99461.69;;;4.47;100.00
65173;BME280;51758;52.218;5.172;2023-01-19T11:28:20;99475.59;;;4.46;100.00
65173;BME280;51758;52.218;5.172;2023-01-19T11:30:56;99497.59;;;4.64;100.00
65173;BME280;51758;52.218;5.172;2023-01-19T11:33:25;99504.97;;;4.76;100.00
65173;BME280;51758;52.218;5.172;2023-01-19T11:36:05;99535.06;;;4.68;100.00
65173;BME280;51758;52.218;5.172;2023-01-19T11:38:40;99549.97;;;4.89;100.00
65173;BME280;51758;52.218;5.172;2023-01-19T11:41:16;99576.47;;;4.91;100.00
65173;BME280;51758;52.218;5.172;2023-01-19T11:43:46;99609.38;;;4.97;100.00
65173;BME280;51758;52.218;5.172;2023-01-19T11:46:15;99632.81;;;4.96;100.00
65173;BME280;51758;52.218;5.172;2023-01-19T11:48:47;99649.22;;;5.11;100.00
65173;BME280;51758;52.218;5.172;2023-01-19T11:51:20;99668.69;;;4.99;100.00
65173;BME280;51758;52.218;5.172;2023-01-19T11:53:51;99667.41;;;4.95;100.00
65173;BME280;51758;52.218;5.172;2023-01-19T11:56:21;99671.63;;;4.96;100.00
65173;BME280;51758;52.218;5.172;2023-01-19T11:58:50;99678.94;;;4.92;100.00
65173;BME280;51758;52.218;5.172;2023-01-19T12:01:20;99659.31;;;4.98;100.00
65173;BME280;51758;52.218;5.172;2023-01-19T12:03:54;99666.59;;;5.02;100.00
65173;BME280;51758;52.218;5.172;2023-01-19T12:06:28;99676.53;;;5.14;100.00
65173;BME280;51758;52.218;5.172;2023-01-19T12:09:00;99700.63;;;5.14;100.00
65173;BME280;51758;52.218;5.172;2023-01-19T12:11:33;99703.22;;;5.14;100.00
65173;BME280;51758;52.218;5.172;2023-01-19T12:14:03;99693.63;;;5.23;100.00
65173;BME280;51758;52.218;5.172;2023-01-19T12:16:33;99724.94;;;5.05;100.00
65173;BME280;51758;52.218;5.172;2023-01-19T12:19:09;99721.56;;;4.96;100.00
65173;BME280;51758;52.218;5.172;2023-01-19T12:21:41;99685.69;;;4.62;100.00
65173;BME280;51758;52.218;5.172;2023-01-19T12:24:12;99717.09;;;4.90;100.00
65173;BME280;51758;52.218;5.172;2023-01-19T12:26:48;99691.13;;;4.76;100.00
65173;BME280;51758;52.218;5.172;2023-01-19T12:29:20;99680.56;;;4.54;100.00
65173;BME280;51758;52.218;5.172;2023-01-19T12:34:52;99630.41;;;4.63;100.00
65173;BME280;51758;52.218;5.172;2023-01-19T12:37:33;99629.19;;;4.82;100.00
65173;BME280;51758;52.218;5.172;2023-01-19T12:40:16;99629.63;;;4.94;100.00
65173;BME280;51758;52.218;5.172;2023-01-19T12:42:46;99654.50;;;4.95;100.00
65173;BME280;51758;52.218;5.172;2023-01-19T12:45:20;99676.00;;;4.95;100.00
65173;BME280;51758;52.218;5.172;2023-01-19T12:47:51;99695.66;;;4.74;100.00
65173;BME280;51758;52.218;5.172;2023-01-19T12:50:20;99693.47;;;4.46;100.00
65173;BME280;51758;52.218;5.172;2023-01-19T12:52:54;99708.03;;;4.47;100.00
65173;BME280;51758;52.218;5.172;2023-01-19T12:55:26;99726.63;;;4.35;100.00
65173;BME280;51758;52.218;5.172;2023-01-19T12:57:59;99738.75;;;4.26;100.00
65173;BME280;51758;52.218;5.172;2023-01-19T13:00:34;99743.25;;;4.32;100.00
65173;BME280;51758;52.218;5.172;2023-01-19T13:03:04;99744.41;;;4.38;100.00
65173;BME280;51758;52.218;5.172;2023-01-19T13:05:52;99756.34;;;4.39;100.00
65173;BME280;51758;52.218;5.172;2023-01-19T13:08:22;99775.22;;;4.31;100.00
65173;BME280;51758;52.218;5.172;2023-01-19T13:11:14;99752.97;;;4.22;100.00
65173;BME280;51758;52.218;5.172;2023-01-19T13:13:43;99752.00;;;4.07;100.00
65173;BME280;51758;52.218;5.172;2023-01-19T13:19:53;99796.88;;;4.22;100.00
65173;BME280;51758;52.218;5.172;2023-01-19T13:22:49;99817.72;;;4.20;100.00
65173;BME280;51758;52.218;5.172;2023-01-19T13:25:29;99822.06;;;4.20;100.00